createdAt,value
2022-12-09T00:00:23.546Z,95807.00
2022-12-09T00:02:50.580Z,95806.06
2022-12-09T00:05:18.142Z,95803.50
2022-12-09T00:07:44.832Z,95809.56
2022-12-09T00:10:11.818Z,95808.75
2022-12-09T00:12:38.847Z,95800.13
2022-12-09T00:15:05.619Z,95795.81
2022-12-09T00:17:32.321Z,95797.47
2022-12-09T00:19:58.848Z,95792.22
2022-12-09T00:22:26.415Z,95790.47
2022-12-09T00:24:53.150Z,95796.97
2022-12-09T00:27:19.627Z,95798.81
2022-12-09T00:29:46.090Z,95806.28
2022-12-09T00:32:12.689Z,95805.56
2022-12-09T00:34:39.240Z,95804.66
2022-12-09T00:37:05.901Z,95805.69
2022-12-09T00:39:32.406Z,95811.06
2022-12-09T00:41:59.017Z,95811.16
2022-12-09T00:44:25.620Z,95818.03
2022-12-09T00:46:52.223Z,95817.34
2022-12-09T00:49:19.004Z,95819.78
2022-12-09T00:51:45.908Z,95818.16
2022-12-09T00:54:13.119Z,95816.41
2022-12-09T00:56:39.714Z,95827.72
2022-12-09T00:59:06.409Z,95834.59
2022-12-09T01:01:33.083Z,95835.50
2022-12-09T01:03:59.795Z,95830.16
2022-12-09T01:06:26.756Z,95823.41
2022-12-09T01:08:53.651Z,95816.69
2022-12-09T01:11:21.153Z,95822.03
2022-12-09T01:13:47.864Z,95810.84
2022-12-09T01:16:18.908Z,95815.41
2022-12-09T01:18:45.600Z,95816.22
2022-12-09T01:21:12.307Z,95814.69
2022-12-09T01:23:39.007Z,95822.38
2022-12-09T01:26:06.730Z,95813.22
2022-12-09T01:28:36.505Z,95810.06
2022-12-09T01:31:10.121Z,95807.78
2022-12-09T01:33:37.017Z,95803.59
2022-12-09T01:36:07.328Z,95808.72
2022-12-09T01:38:33.878Z,95813.69
2022-12-09T01:41:00.529Z,95810.06
2022-12-09T01:43:27.384Z,95811.69
2022-12-09T01:45:54.260Z,95805.75
2022-12-09T01:48:21.915Z,95799.59
2022-12-09T01:50:51.552Z,95799.47
2022-12-09T01:53:18.484Z,95799.34
2022-12-09T01:55:45.127Z,95801.09
2022-12-09T01:58:11.954Z,95792.38
2022-12-09T02:00:38.682Z,95790.06
2022-12-09T02:03:05.640Z,95784.13
2022-12-09T02:05:32.480Z,95780.91
2022-12-09T02:07:59.522Z,95781.69
2022-12-09T02:10:26.340Z,95788.31
2022-12-09T02:13:02.218Z,95784.00
2022-12-09T02:15:40.261Z,95789.69
2022-12-09T02:18:18.534Z,95778.78
2022-12-09T02:20:46.043Z,95788.19
2022-12-09T02:23:18.163Z,95787.63
2022-12-09T02:25:48.314Z,95784.34
2022-12-09T02:28:27.109Z,95791.13
2022-12-09T02:31:12.642Z,95792.03
2022-12-09T02:33:39.189Z,95786.81
2022-12-09T02:36:05.904Z,95784.34
2022-12-09T02:38:32.607Z,95789.47
2022-12-09T02:41:02.671Z,95777.53
2022-12-09T02:43:30.612Z,95774.03
2022-12-09T02:45:57.313Z,95774.03
2022-12-09T02:48:25.668Z,95782.50
2022-12-09T02:50:52.143Z,95781.69
2022-12-09T02:53:18.717Z,95774.13
2022-12-09T02:55:45.531Z,95772.41
2022-12-09T02:58:12.058Z,95772.41
2022-12-09T03:00:38.586Z,95764.59
2022-12-09T03:03:05.591Z,95760.28
2022-12-09T03:05:47.897Z,95763.44
2022-12-09T03:11:43.350Z,95755.63
2022-12-09T03:14:09.904Z,95761.69
2022-12-09T03:16:37.632Z,95765.06
2022-12-09T03:19:19.425Z,95767.72
2022-12-09T03:21:46.643Z,95758.53
2022-12-09T03:24:13.718Z,95760.44
2022-12-09T03:26:40.363Z,95751.81
2022-12-09T03:29:07.651Z,95750.28
2022-12-09T03:31:34.349Z,95747.72
2022-12-09T03:34:02.338Z,95752.75
2022-12-09T03:36:29.383Z,95762.41
2022-12-09T03:38:56.241Z,95761.59
2022-12-09T03:41:30.155Z,95755.53
2022-12-09T03:44:02.133Z,95748.69
2022-12-09T03:46:29.029Z,95755.66
2022-12-09T03:48:56.421Z,95748.13
2022-12-09T03:51:43.207Z,95746.47
2022-12-09T03:54:33.351Z,95621.25
2022-12-09T03:56:59.894Z,95755.81
2022-12-09T03:59:30.002Z,95753.91
2022-12-09T04:01:56.556Z,95748.00
2022-12-09T04:04:23.555Z,95745.31
2022-12-09T04:06:50.664Z,95746.13
2022-12-09T04:09:17.171Z,95747.72
2022-12-09T04:11:43.830Z,95749.25
2022-12-09T04:14:15.229Z,95745.06
2022-12-09T04:16:42.521Z,95751.00
2022-12-09T04:19:09.146Z,95747.50
2022-12-09T04:21:35.891Z,95734.84
2022-12-09T04:24:02.544Z,95739.16
2022-12-09T04:26:29.217Z,95734.94
2022-12-09T04:28:55.665Z,95737.41
2022-12-09T04:31:46.435Z,95736.69
2022-12-09T04:34:12.999Z,95735.88
2022-12-09T04:36:39.606Z,95723.91
2022-12-09T04:42:34.154Z,95739.63
2022-12-09T04:45:00.907Z,95737.31
2022-12-09T04:47:27.863Z,95738.13
2022-12-09T04:53:23.308Z,95744.03
2022-12-09T04:55:49.773Z,95743.25
2022-12-09T04:58:16.210Z,95745.00
2022-12-09T05:04:10.423Z,95741.63
2022-12-09T05:06:37.317Z,95743.38
2022-12-09T05:09:04.325Z,95750.56
2022-12-09T05:11:31.315Z,95746.25
2022-12-09T05:13:57.954Z,95745.66
2022-12-09T05:16:24.857Z,95741.63
2022-12-09T05:18:51.613Z,95746.06
2022-12-09T05:21:18.763Z,95747.09
2022-12-09T05:23:45.801Z,95746.41
2022-12-09T05:26:13.242Z,95741.97
2022-12-09T05:28:40.207Z,95739.28
2022-12-09T05:31:08.027Z,95756.28
2022-12-09T05:33:35.028Z,95748.47
2022-12-09T05:36:01.996Z,95758.84
2022-12-09T05:38:29.943Z,95741.03
2022-12-09T05:40:59.034Z,95739.19
2022-12-09T05:43:25.951Z,95731.38
2022-12-09T05:45:52.907Z,95723.44
2022-12-09T05:48:19.521Z,95721.84
2022-12-09T05:50:46.167Z,95723.72
2022-12-09T05:53:12.848Z,95709.19
2022-12-09T05:55:42.849Z,95693.97
2022-12-09T05:58:09.763Z,95685.56
2022-12-09T06:00:36.463Z,95677.00
2022-12-09T06:03:03.422Z,95678.03
2022-12-09T06:05:30.271Z,95682.47
2022-12-09T06:07:59.017Z,95679.91
2022-12-09T06:10:28.954Z,95667.25
2022-12-09T06:12:56.169Z,95663.63
2022-12-09T06:15:26.767Z,95665.50
2022-12-09T06:17:56.583Z,95651.91
2022-12-09T06:20:23.410Z,95655.28
2022-12-09T06:22:50.266Z,95665.50
2022-12-09T06:25:16.932Z,95667.13
2022-12-09T06:27:43.873Z,95664.69
2022-12-09T06:30:10.714Z,95669.81
2022-12-09T06:32:37.502Z,95666.31
2022-12-09T06:35:04.367Z,95668.88
2022-12-09T06:37:32.692Z,95667.94
2022-12-09T06:39:59.450Z,95674.66
2022-12-09T06:42:26.000Z,95673.59
2022-12-09T06:44:52.848Z,95684.28
2022-12-09T06:47:19.433Z,95677.53
2022-12-09T06:49:46.950Z,95686.84
2022-12-09T06:52:14.216Z,95684.84
2022-12-09T06:54:40.765Z,95688.34
2022-12-09T06:57:07.326Z,95685.94
2022-12-09T07:00:15.323Z,95684.97
2022-12-09T07:02:41.994Z,95682.28
2022-12-09T07:05:09.460Z,95678.66
2022-12-09T07:07:36.286Z,95677.75
2022-12-09T07:10:06.657Z,95676.00
2022-12-09T07:12:33.473Z,95685.97
2022-12-09T07:15:00.094Z,95679.81
2022-12-09T07:17:27.088Z,95676.44
2022-12-09T07:19:53.689Z,95680.63
2022-12-09T07:22:20.946Z,95680.72
2022-12-09T07:24:47.528Z,95678.28
2022-12-09T07:27:19.205Z,95673.19
2022-12-09T07:29:47.478Z,95678.28
2022-12-09T07:32:14.868Z,95677.94
2022-12-09T07:34:41.605Z,95670.44
2022-12-09T07:37:08.675Z,95669.09
2022-12-09T07:39:35.442Z,95664.19
2022-12-09T07:42:02.260Z,95667.94
2022-12-09T07:44:28.949Z,95671.44
2022-12-09T07:46:55.833Z,95668.06
2022-12-09T07:49:22.588Z,95667.94
2022-12-09T07:51:49.538Z,95677.25
2022-12-09T07:54:17.110Z,95678.75
2022-12-09T07:56:43.665Z,95672.44
2022-12-09T07:59:10.389Z,95675.69
2022-12-09T08:01:37.163Z,95670.44
2022-12-09T08:04:05.199Z,95670.44
2022-12-09T08:06:32.203Z,95665.31
2022-12-09T08:08:59.845Z,95668.00
2022-12-09T08:11:27.527Z,95666.25
2022-12-09T08:13:55.907Z,95659.69
2022-12-09T08:16:23.147Z,95652.72
2022-12-09T08:18:50.668Z,95655.00
2022-12-09T08:21:35.920Z,95655.00
2022-12-09T08:24:03.321Z,95659.91
2022-12-09T08:26:30.692Z,95658.69
2022-12-09T08:28:57.402Z,95657.63
2022-12-09T08:31:25.623Z,95655.66
2022-12-09T08:33:52.925Z,95662.91
2022-12-09T08:36:20.426Z,95661.34
2022-12-09T08:38:47.424Z,95658.28
2022-12-09T08:41:21.501Z,95639.72
2022-12-09T08:43:48.434Z,95640.50
2022-12-09T08:46:15.459Z,95642.13
2022-12-09T08:48:42.617Z,95649.81
2022-12-09T08:51:09.950Z,95647.25
2022-12-09T08:53:37.074Z,95645.41
2022-12-09T08:56:13.698Z,95647.16
2022-12-09T08:58:40.395Z,95631.38
2022-12-09T09:01:07.240Z,95622.63
2022-12-09T09:03:34.238Z,95628.28
2022-12-09T09:06:08.750Z,95632.34
2022-12-09T09:08:36.185Z,95628.59
2022-12-09T09:11:10.735Z,95639.38
2022-12-09T09:13:39.257Z,95625.38
2022-12-09T09:16:09.441Z,95632.13
2022-12-09T09:18:36.751Z,95629.56
2022-12-09T09:21:03.617Z,95625.25
2022-12-09T09:23:30.201Z,95625.09
2022-12-09T09:25:56.814Z,95616.50
2022-12-09T09:28:30.643Z,95618.91
2022-12-09T09:31:01.707Z,95619.72
2022-12-09T09:33:37.177Z,95621.34
2022-12-09T09:36:09.631Z,95618.53
2022-12-09T09:38:36.765Z,95623.25
2022-12-09T09:41:06.994Z,95613.81
2022-12-09T09:43:34.353Z,95608.69
2022-12-09T09:46:01.165Z,95606.00
2022-12-09T09:48:28.889Z,95599.78
2022-12-09T09:50:58.542Z,95596.00
2022-12-09T09:53:26.813Z,95593.47
2022-12-09T09:55:57.533Z,95593.31
2022-12-09T09:58:26.203Z,95599.66
2022-12-09T10:00:53.307Z,95588.47
2022-12-09T10:03:20.065Z,95506.56
2022-12-09T10:05:50.284Z,95587.78
2022-12-09T10:08:26.235Z,95582.66
2022-12-09T10:10:56.737Z,95598.19
2022-12-09T10:13:37.545Z,95581.06
2022-12-09T10:16:17.946Z,95580.75
2022-12-09T10:18:48.132Z,95567.56
2022-12-09T10:21:18.164Z,95569.16
2022-12-09T10:23:45.243Z,95564.59
2022-12-09T10:26:28.178Z,95551.38
2022-12-09T10:29:18.070Z,95547.16
2022-12-09T10:31:44.631Z,95538.97
2022-12-09T10:34:12.607Z,95538.13
2022-12-09T10:36:39.480Z,95531.94
2022-12-09T10:39:06.236Z,95524.63
2022-12-09T10:41:54.655Z,95520.31
2022-12-09T10:44:21.920Z,95521.78
2022-12-09T10:46:48.761Z,95508.84
2022-12-09T10:49:19.378Z,95504.25
2022-12-09T10:51:50.236Z,95493.31
2022-12-09T10:54:21.020Z,95489.84
2022-12-09T10:57:02.156Z,95487.13
2022-12-09T10:59:29.971Z,95474.56
2022-12-09T11:01:56.788Z,95469.59
2022-12-09T11:04:30.781Z,95472.41
2022-12-09T11:07:00.144Z,95452.69
2022-12-09T11:09:32.093Z,95443.69
2022-12-09T11:11:59.277Z,95437.63
2022-12-09T11:14:25.878Z,95438.03
2022-12-09T11:16:52.980Z,95428.06
2022-12-09T11:19:28.550Z,95427.13
2022-12-09T11:22:04.080Z,95429.41
2022-12-09T11:24:31.063Z,95434.41
2022-12-09T11:26:58.102Z,95430.63
2022-12-09T11:29:24.823Z,95433.34
2022-12-09T11:31:51.515Z,95436.81
2022-12-09T11:34:20.930Z,95441.44
2022-12-09T11:36:51.466Z,95436.84
2022-12-09T11:39:27.150Z,95438.06
2022-12-09T11:42:18.614Z,95442.38
2022-12-09T11:45:06.293Z,95437.38
2022-12-09T11:47:50.417Z,95440.63
2022-12-09T11:50:24.141Z,95442.25
2022-12-09T11:53:09.470Z,95431.59
2022-12-09T11:55:36.663Z,95428.38
2022-12-09T11:58:04.224Z,95430.25
2022-12-09T12:00:34.205Z,95420.28
2022-12-09T12:03:23.403Z,95414.47
2022-12-09T12:05:50.433Z,95407.59
2022-12-09T12:08:19.933Z,95400.88
2022-12-09T12:10:55.656Z,95398.31
2022-12-09T12:13:29.228Z,95396.56
2022-12-09T12:15:59.020Z,95394.00
2022-12-09T12:18:25.414Z,95386.44
2022-12-09T12:21:09.404Z,95396.94
2022-12-09T12:23:35.788Z,95401.53
2022-12-09T12:26:24.983Z,95397.66
2022-12-09T12:29:11.170Z,95395.19
2022-12-09T12:31:53.278Z,95392.53
2022-12-09T12:34:39.070Z,95390.91
2022-12-09T12:37:18.617Z,95384.03
2022-12-09T12:40:03.928Z,95368.78
2022-12-09T12:42:33.250Z,95370.53
2022-12-09T12:45:19.798Z,95375.94
2022-12-09T12:47:47.291Z,95363.28
2022-12-09T12:50:32.421Z,95359.78
2022-12-09T12:53:18.241Z,95361.63
2022-12-09T12:55:57.413Z,95359.22
2022-12-09T12:58:23.813Z,95357.63
2022-12-09T13:01:04.935Z,95360.19
2022-12-09T13:03:50.307Z,95360.84
2022-12-09T13:06:17.717Z,95353.16
2022-12-09T13:09:02.796Z,95350.06
2022-12-09T13:11:35.660Z,95354.50
2022-12-09T13:14:03.522Z,95356.25
2022-12-09T13:16:31.693Z,95354.91
2022-12-09T13:19:19.174Z,95353.19
2022-12-09T13:21:45.737Z,95349.25
2022-12-09T13:24:22.005Z,95358.97
2022-12-09T13:26:51.515Z,95347.66
2022-12-09T13:29:21.187Z,95341.19
2022-12-09T13:32:02.756Z,95331.38
2022-12-09T13:34:32.170Z,95328.00
2022-12-09T13:36:58.594Z,95332.28
2022-12-09T13:39:40.353Z,95325.44
2022-12-09T13:42:46.359Z,95317.47
2022-12-09T13:45:25.056Z,95315.88
2022-12-09T13:47:53.317Z,95318.44
2022-12-09T13:50:26.399Z,95311.81
2022-12-09T13:52:53.745Z,95314.50
2022-12-09T13:55:22.849Z,95309.94
2022-12-09T13:58:08.229Z,95310.31
2022-12-09T14:00:34.635Z,95311.41
2022-12-09T14:03:02.795Z,95312.47
2022-12-09T14:05:29.529Z,95309.13
2022-12-09T14:08:00.319Z,95306.56
2022-12-09T14:10:46.365Z,95298.47
2022-12-09T14:13:19.556Z,95298.47
2022-12-09T14:15:46.536Z,95296.06
2022-12-09T14:18:26.227Z,95298.63
2022-12-09T14:21:11.473Z,95290.28
2022-12-09T14:23:38.292Z,95283.53
2022-12-09T14:26:05.947Z,95284.63
2022-12-09T14:28:36.866Z,95282.47
2022-12-09T14:31:08.470Z,95275.44
2022-12-09T14:33:35.488Z,95268.59
2022-12-09T14:36:06.479Z,95261.44
2022-12-09T14:39:07.764Z,95263.59
2022-12-09T14:41:36.944Z,95262.13
2022-12-09T14:44:08.719Z,95247.19
2022-12-09T14:46:38.882Z,95249.88
2022-12-09T14:49:31.855Z,95242.22
2022-12-09T14:52:03.468Z,95242.75
2022-12-09T14:54:33.647Z,95231.31
2022-12-09T14:57:00.884Z,95226.03
2022-12-09T14:59:28.185Z,95211.94
2022-12-09T15:01:56.319Z,95215.44
2022-12-09T15:04:33.512Z,95208.81
2022-12-09T15:07:16.206Z,95199.94
2022-12-09T15:09:51.810Z,95201.16
2022-12-09T15:12:18.447Z,95193.06
2022-12-09T15:14:45.068Z,95182.19
2022-12-09T15:17:15.595Z,95182.84
2022-12-09T15:22:29.422Z,95171.53
2022-12-09T15:24:55.867Z,95168.19
2022-12-09T15:27:22.993Z,95167.09
2022-12-09T15:29:49.500Z,95170.06
2022-12-09T15:32:20.317Z,95163.34
2022-12-09T15:34:46.947Z,95163.72
2022-12-09T15:37:13.397Z,95156.75
2022-12-09T15:39:44.919Z,95159.97
2022-12-09T15:42:12.905Z,95153.50
2022-12-09T15:44:44.442Z,95150.69
2022-12-09T15:47:13.882Z,95163.06
2022-12-09T15:49:42.774Z,95163.19
2022-12-09T15:52:09.204Z,95157.03
2022-12-09T15:54:36.569Z,95151.63
2022-12-09T15:57:03.670Z,95157.41
2022-12-09T15:59:31.918Z,95156.47
2022-12-09T16:01:58.512Z,95157.28
2022-12-09T16:04:32.368Z,95160.63
2022-12-09T16:07:04.453Z,95151.06
2022-12-09T16:09:30.865Z,95150.81
2022-12-09T16:11:57.316Z,95158.47
2022-12-09T16:14:23.978Z,95156.06
2022-12-09T16:16:51.460Z,95154.44
2022-12-09T16:19:34.700Z,95155.38
2022-12-09T16:22:05.960Z,95160.63
2022-12-09T16:24:50.817Z,95153.25
2022-12-09T16:27:19.799Z,95163.59
2022-12-09T16:29:47.696Z,95161.19
2022-12-09T16:32:28.292Z,95162.78
2022-12-09T16:34:55.723Z,95162.13
2022-12-09T16:37:37.406Z,95156.22
2022-12-09T16:40:28.423Z,95158.78
2022-12-09T16:42:55.775Z,95156.31
2022-12-09T16:45:51.720Z,95145.28
2022-12-09T16:48:18.956Z,95141.13
2022-12-09T16:50:45.404Z,95137.63
2022-12-09T16:53:16.043Z,95141.13
2022-12-09T16:55:52.510Z,95140.31
2022-12-09T16:58:18.996Z,95131.72
2022-12-09T17:00:45.471Z,95137.63
2022-12-09T17:03:35.374Z,95134.16
2022-12-09T17:06:01.774Z,95137.63
2022-12-09T17:08:28.271Z,95129.16
2022-12-09T17:10:54.768Z,95127.28
2022-12-09T17:13:21.182Z,95127.41
2022-12-09T17:15:47.705Z,95127.41
2022-12-09T17:18:14.400Z,95128.09
2022-12-09T17:20:40.801Z,95117.97
2022-12-09T17:23:07.227Z,95119.63
2022-12-09T17:25:33.667Z,95125.78
2022-12-09T17:28:03.775Z,95121.63
2022-12-09T17:30:30.238Z,95120.81
2022-12-09T17:32:58.102Z,95105.47
2022-12-09T17:35:24.513Z,95115.56
2022-12-09T17:37:50.939Z,95112.06
2022-12-09T17:40:17.407Z,95105.06
2022-12-09T17:42:49.047Z,95108.28
2022-12-09T17:45:15.493Z,95108.16
2022-12-09T17:47:42.122Z,95108.84
2022-12-09T17:50:09.376Z,95109.63
2022-12-09T17:52:36.041Z,95114.59
2022-12-09T17:55:02.519Z,95112.84
2022-12-09T17:57:29.004Z,95106.00
2022-12-09T17:59:55.410Z,95110.31
2022-12-09T18:02:21.943Z,95099.25
2022-12-09T18:04:48.552Z,95094.97
2022-12-09T18:07:15.119Z,95097.50
2022-12-09T18:09:41.808Z,95107.75
2022-12-09T18:12:08.366Z,95098.31
2022-12-09T18:14:34.839Z,95092.41
2022-12-09T18:17:01.394Z,95100.06
2022-12-09T18:19:28.459Z,95092.53
2022-12-09T18:21:55.639Z,95086.47
2022-12-09T18:24:22.212Z,95084.59
2022-12-09T18:26:48.766Z,95081.22
2022-12-09T18:29:15.539Z,95077.72
2022-12-09T18:31:45.566Z,95075.16
2022-12-09T18:34:12.080Z,95076.78
2022-12-09T18:36:38.639Z,95070.88
2022-12-09T18:39:05.211Z,95071.00
2022-12-09T18:41:31.991Z,95077.72
2022-12-09T18:44:00.642Z,95074.34
2022-12-09T18:46:28.056Z,95083.78
2022-12-09T18:48:55.271Z,95086.47
2022-12-09T18:51:21.758Z,95082.16
2022-12-09T18:53:53.347Z,95088.22
2022-12-09T18:56:19.829Z,95086.88
2022-12-09T19:01:32.801Z,95076.16
2022-12-09T19:04:02.602Z,95077.22
2022-12-09T19:06:38.905Z,95081.66
2022-12-09T19:09:06.510Z,95074.13
2022-12-09T19:11:33.669Z,95082.72
2022-12-09T19:14:00.202Z,95069.94
2022-12-09T19:16:26.890Z,95075.06
2022-12-09T19:18:53.684Z,95076.00
2022-12-09T19:21:20.791Z,95072.66
2022-12-09T19:23:47.659Z,95073.59
2022-12-09T19:26:15.049Z,95079.66
2022-12-09T19:28:46.398Z,95076.28
2022-12-09T19:31:16.666Z,95071.28
2022-12-09T19:33:43.267Z,95069.69
2022-12-09T19:36:10.089Z,95061.06
2022-12-09T19:38:36.536Z,95072.25
2022-12-09T19:41:02.989Z,95066.34
2022-12-09T19:43:29.433Z,95056.09
2022-12-09T19:45:55.987Z,95056.91
2022-12-09T19:48:22.464Z,95057.72
2022-12-09T19:50:48.913Z,95061.06
2022-12-09T19:53:15.359Z,95060.97
2022-12-09T19:55:41.868Z,95061.91
2022-12-09T19:58:09.249Z,95067.03
2022-12-09T20:00:41.420Z,95070.38
2022-12-09T20:03:08.306Z,95064.31
2022-12-09T20:05:35.032Z,95069.44
2022-12-09T20:08:01.488Z,95075.50
2022-12-09T20:10:28.023Z,95079.66
2022-12-09T20:12:54.495Z,95080.59
2022-12-09T20:15:20.898Z,95076.41
2022-12-09T20:17:47.328Z,95087.59
2022-12-09T20:20:13.909Z,95085.03
2022-12-09T20:23:02.427Z,95086.78
2022-12-09T20:25:29.172Z,95086.78
2022-12-09T20:27:55.669Z,95086.25
2022-12-09T20:30:22.394Z,95078.84
2022-12-09T20:32:48.807Z,95080.75
2022-12-09T20:35:15.344Z,95082.63
2022-12-09T20:37:42.144Z,95087.06
2022-12-09T20:40:09.140Z,95079.41
2022-12-09T20:42:35.817Z,95080.50
2022-12-09T20:45:02.251Z,95076.28
2022-12-09T20:47:28.852Z,95075.50
2022-12-09T20:49:55.250Z,95069.56
2022-12-09T20:52:21.667Z,95068.63
2022-12-09T20:54:48.253Z,95066.22
2022-12-09T20:57:14.863Z,95075.78
2022-12-09T20:59:41.287Z,95064.75
2022-12-09T21:02:13.616Z,95071.31
2022-12-09T21:04:40.285Z,95072.94
2022-12-09T21:07:06.723Z,95070.94
2022-12-09T21:09:33.332Z,95072.69
2022-12-09T21:12:00.346Z,95069.56
2022-12-09T21:14:32.440Z,95069.56
2022-12-09T21:16:59.381Z,95083.03
2022-12-09T21:19:30.404Z,95076.28
2022-12-09T21:21:56.911Z,95082.50
2022-12-09T21:24:24.617Z,95086.16
2022-12-09T21:26:53.409Z,95077.66
2022-12-09T21:29:20.293Z,95079.41
2022-12-09T21:31:50.437Z,95071.88
2022-12-09T21:34:17.770Z,95069.47
2022-12-09T21:36:44.413Z,95074.72
2022-12-09T21:39:11.910Z,95076.47
2022-12-09T21:41:38.389Z,95070.53
2022-12-09T21:44:05.084Z,95073.06
2022-12-09T21:46:33.498Z,95060.19
2022-12-09T21:49:03.944Z,95070.41
2022-12-09T21:51:31.221Z,95070.13
2022-12-09T21:53:57.990Z,95084.50
2022-12-09T21:56:25.105Z,95090.16
2022-12-09T21:58:52.256Z,95096.09
2022-12-09T22:01:19.762Z,95096.22
2022-12-09T22:03:46.445Z,95080.09
2022-12-09T22:06:12.939Z,95089.63
2022-12-09T22:08:39.638Z,95093.81
2022-12-09T22:11:09.851Z,95105.75
2022-12-09T22:13:39.596Z,95101.59
2022-12-09T22:16:26.917Z,95101.72
2022-12-09T22:18:53.767Z,95106.84
2022-12-09T22:21:25.632Z,95092.16
2022-12-09T22:23:56.288Z,95098.09
2022-12-09T22:26:22.810Z,95088.81
2022-12-09T22:28:49.396Z,95085.59
2022-12-09T22:31:17.452Z,95089.75
2022-12-09T22:33:44.295Z,95098.22
2022-12-09T22:36:11.019Z,95088.81
2022-12-09T22:38:37.896Z,95080.59
2022-12-09T22:41:04.852Z,95086.53
2022-12-09T22:43:36.481Z,95088.69
2022-12-09T22:46:05.175Z,95087.88
2022-12-09T22:48:31.675Z,95086.81
2022-12-09T22:51:08.691Z,95087.47
2022-12-09T22:53:35.109Z,95083.59
2022-12-09T22:56:01.570Z,95090.97
2022-12-09T22:58:28.116Z,95089.34
2022-12-09T23:00:54.665Z,95089.34
2022-12-09T23:03:26.390Z,95090.56
2022-12-09T23:05:52.900Z,95094.34
2022-12-09T23:08:19.379Z,95083.56
2022-12-09T23:10:45.933Z,95088.00
2022-12-09T23:13:12.389Z,95087.59
2022-12-09T23:15:38.859Z,95096.19
2022-12-09T23:18:05.360Z,95101.41
2022-12-09T23:20:32.388Z,95100.34
2022-12-09T23:22:58.824Z,95102.09
2022-12-09T23:25:25.289Z,95111.50
2022-12-09T23:27:51.711Z,95105.81
2022-12-09T23:30:18.174Z,95105.81
2022-12-09T23:32:44.825Z,95099.91
2022-12-09T23:35:11.447Z,95106.78
2022-12-09T23:37:37.848Z,95104.09
2022-12-09T23:40:05.312Z,95094.00
2022-12-09T23:42:31.901Z,95092.13
2022-12-09T23:44:58.533Z,95103.84
2022-12-09T23:47:25.152Z,95108.28
2022-12-09T23:49:51.562Z,95108.94
2022-12-09T23:52:18.268Z,95114.03
2022-12-09T23:54:44.676Z,95120.75
2022-12-09T23:57:11.110Z,95121.97
2022-12-09T23:59:37.625Z,95108.56
